Time;durP1;ratioP1;P1;durP2;ratioP2;P2;SDS_P1;SDS_P2;PMS_P1;PMS_P2;Temp;Humidity;BMP_temperature;BMP_pressure;BME280_temperature;BME280_humidity;BME280_pressure;Samples;Min_cycle;Max_cycle;Signal;HPM_P1;HPM_P2
2021/08/09 00:00:08;;;;;;;7.90;4.90;;;;;;;23.62;42.31;99576.00;5110565;28;20019;-68
2021/08/09 00:02:33;;;;;;;15.02;4.68;;;;;;;23.81;42.62;99571.72;5110466;28;20031;-68
2021/08/09 00:04:59;;;;;;;11.32;4.40;;;;;;;23.94;42.00;99574.88;5109257;28;20416;-69
2021/08/09 00:07:24;;;;;;;6.53;4.95;;;;;;;23.71;42.50;99569.78;5110326;28;20079;-68
2021/08/09 00:09:50;;;;;;;8.55;5.15;;;;;;;23.46;42.95;99573.69;5111971;28;20028;-69
2021/08/09 00:12:15;;;;;;;8.75;5.22;;;;;;;23.46;43.18;99578.59;5114675;28;20031;-70
2021/08/09 00:14:41;;;;;;;11.23;5.38;;;;;;;23.48;43.28;99568.41;5114326;28;20446;-68
2021/08/09 00:17:07;;;;;;;9.10;4.88;;;;;;;23.62;42.82;99573.16;5147609;27;20520;-68
2021/08/09 00:19:33;;;;;;;10.82;5.97;;;;;;;23.35;43.82;99567.28;5114093;28;20024;-68
2021/08/09 00:21:59;;;;;;;16.10;4.93;;;;;;;23.27;43.81;99564.50;5114318;28;20067;-68
2021/08/09 00:24:24;;;;;;;8.32;5.43;;;;;;;23.33;43.84;99567.72;5114013;28;20408;-68
2021/08/09 00:26:49;;;;;;;8.77;4.97;;;;;;;23.28;43.68;99579.56;5114091;28;20549;-68
2021/08/09 00:29:15;;;;;;;15.43;5.57;;;;;;;23.39;43.80;99573.78;5114178;28;20106;-67
2021/08/09 00:31:40;;;;;;;9.07;4.93;;;;;;;23.22;43.96;99579.16;5113851;28;20039;-69
2021/08/09 00:34:06;;;;;;;11.00;4.97;;;;;;;23.45;43.42;99577.78;5147143;27;20039;-69
2021/08/09 00:36:32;;;;;;;6.88;4.93;;;;;;;23.53;43.49;99581.38;5113597;28;20053;-68
2021/08/09 00:38:57;;;;;;;6.15;4.60;;;;;;;23.48;43.30;99581.84;5113884;28;20026;-68
2021/08/09 00:41:23;;;;;;;6.82;5.32;;;;;;;22.91;44.76;99583.88;5113702;28;20480;-68
2021/08/09 00:43:48;;;;;;;13.05;4.68;;;;;;;22.84;45.22;99576.16;5112222;28;20020;-70
2021/08/09 00:46:14;;;;;;;9.40;6.10;;;;;;;22.42;46.59;99576.78;5146991;27;20545;-68
2021/08/09 00:48:39;;;;;;;7.82;5.78;;;;;;;22.46;46.45;99570.25;5113430;28;20035;-67
2021/08/09 00:51:07;;;;;;;9.85;4.97;;;;;;;22.52;46.53;99571.47;5113630;28;20031;-69
2021/08/09 00:53:33;;;;;;;7.57;4.95;;;;;;;22.48;46.78;99577.19;5113697;28;20020;-68
2021/08/09 00:55:59;;;;;;;18.17;7.10;;;;;;;22.49;46.74;99584.50;5113545;28;20118;-69
2021/08/09 00:58:24;;;;;;;10.05;4.82;;;;;;;22.62;45.53;99581.19;5113438;28;20036;-70
2021/08/09 01:00:50;;;;;;;9.15;4.75;;;;;;;22.48;46.05;99588.59;5113471;28;20034;-69
2021/08/09 01:03:16;;;;;;;9.85;4.68;;;;;;;22.62;46.22;99587.69;5122958;27;20058;-68
2021/08/09 01:05:42;;;;;;;6.93;4.85;;;;;;;22.57;46.00;99591.00;5129834;27;20035;-68
2021/08/09 01:08:19;;;;;;;6.40;4.82;;;;;;;22.56;46.22;99590.19;5124943;27;20031;-69
2021/08/09 01:10:56;;;;;;;10.32;4.90;;;;;;;22.62;45.54;99596.25;5128904;27;20046;-70
2021/08/09 01:13:36;;;;;;;9.20;4.18;;;;;;;22.85;44.24;99595.72;5132442;27;20035;-69
2021/08/09 01:16:07;;;;;;;10.35;5.53;;;;;;;22.81;44.67;99605.53;5133891;27;20023;-68
2021/08/09 01:18:36;;;;;;;6.10;4.95;;;;;;;22.85;43.94;99592.88;5133751;27;20461;-67
2021/08/09 01:21:05;;;;;;;9.67;4.83;;;;;;;22.81;44.03;99599.81;5132091;27;20445;-69
2021/08/09 01:23:49;;;;;;;8.02;4.88;;;;;;;22.81;43.77;99592.09;5133594;27;20031;-67
2021/08/09 01:26:27;;;;;;;8.50;4.75;;;;;;;22.93;43.01;99593.63;5105900;27;20019;-69
2021/08/09 01:28:58;;;;;;;14.27;5.22;;;;;;;22.76;43.57;99603.91;5133288;27;20107;-67
2021/08/09 01:31:28;;;;;;;9.90;4.22;;;;;;;22.74;44.47;99602.69;5132071;27;20412;-68
2021/08/09 01:33:54;;;;;;;8.52;4.93;;;;;;;22.72;44.72;99601.09;5133800;27;20109;-69
2021/08/09 01:36:21;;;;;;;10.52;4.68;;;;;;;22.75;44.72;99604.34;5104565;27;20534;-70
2021/08/09 01:38:47;;;;;;;8.82;4.32;;;;;;;22.70;44.87;99595.00;5131837;27;20054;-67
2021/08/09 01:41:14;;;;;;;6.53;4.07;;;;;;;22.77;44.73;99596.97;5133222;27;20015;-70
2021/08/09 01:43:40;;;;;;;9.05;4.70;;;;;;;22.82;44.32;99605.13;5132931;27;20083;-69
2021/08/09 01:46:06;;;;;;;9.50;5.63;;;;;;;22.78;44.96;99595.75;5132969;27;20016;-69
2021/08/09 01:48:32;;;;;;;6.00;4.50;;;;;;;22.75;45.10;99601.50;5133027;27;20027;-67
2021/08/09 01:50:58;;;;;;;12.30;5.70;;;;;;;22.88;44.62;99596.94;5133139;27;20034;-70
2021/08/09 01:53:24;;;;;;;7.88;4.60;;;;;;;22.80;44.75;99598.19;5131439;27;20031;-69
2021/08/09 01:55:52;;;;;;;5.75;4.20;;;;;;;23.12;43.81;99595.13;5132952;27;20095;-69
2021/08/09 01:58:18;;;;;;;14.48;5.35;;;;;;;22.82;44.17;99592.88;5133056;27;20501;-68
2021/08/09 02:00:44;;;;;;;11.20;4.60;;;;;;;22.49;44.95;99587.38;5131451;27;20059;-68
2021/08/09 02:03:09;;;;;;;15.43;5.10;;;;;;;22.32;45.33;99593.91;5131497;27;20454;-67
2021/08/09 02:05:36;;;;;;;10.48;4.15;;;;;;;22.57;44.69;99602.38;5131525;27;20031;-68
2021/08/09 02:08:01;;;;;;;6.68;5.53;;;;;;;22.57;44.56;99597.50;5132890;27;20031;-70
2021/08/09 02:10:29;;;;;;;6.32;4.20;;;;;;;22.49;44.50;99595.09;5132624;27;20038;-68
2021/08/09 02:13:23;;;;;;;8.23;4.47;;;;;;;22.46;44.67;99599.56;5132479;27;20058;-69
2021/08/09 02:16:05;;;;;;;10.82;4.30;;;;;;;22.35;44.74;99591.03;5128130;27;20469;-69
2021/08/09 02:18:40;;;;;;;11.32;4.70;;;;;;;22.57;44.33;99593.84;5130846;27;20069;-67
2021/08/09 02:21:10;;;;;;;11.40;4.47;;;;;;;22.56;44.08;99595.88;5132568;27;20025;-69
2021/08/09 02:23:53;;;;;;;7.38;4.53;;;;;;;22.46;44.31;99598.75;5132172;27;20419;-69
2021/08/09 02:26:28;;;;;;;9.88;4.53;;;;;;;22.53;43.98;99601.59;5132630;27;20087;-68
2021/08/09 02:28:55;;;;;;;11.88;4.57;;;;;;;22.23;45.51;99605.75;5132212;27;20037;-70
2021/08/09 02:31:23;;;;;;;23.60;4.25;;;;;;;22.23;45.44;99592.31;5132228;27;20042;-67
2021/08/09 02:33:50;;;;;;;5.88;3.90;;;;;;;22.42;44.82;99604.44;5131342;27;20027;-68
2021/08/09 02:36:16;;;;;;;11.82;5.05;;;;;;;22.46;45.52;99601.59;5132134;27;20027;-68
2021/08/09 02:38:43;;;;;;;6.80;4.60;;;;;;;22.21;45.71;99593.97;5132193;27;20138;-69
2021/08/09 02:41:09;;;;;;;14.43;5.00;;;;;;;22.36;45.08;99597.56;5131995;27;20027;-68
2021/08/09 02:43:35;;;;;;;9.35;4.30;;;;;;;22.56;44.35;99607.28;5132064;27;20128;-69
2021/08/09 02:46:03;;;;;;;9.15;4.75;;;;;;;22.68;43.68;99608.03;5130499;27;20035;-68
2021/08/09 02:48:31;;;;;;;7.15;4.57;;;;;;;22.48;44.51;99602.84;5131730;27;20457;-69
2021/08/09 02:50:57;;;;;;;5.85;4.45;;;;;;;22.56;44.15;99606.47;5130500;27;20031;-68
2021/08/09 02:53:24;;;;;;;14.13;4.60;;;;;;;22.61;43.87;99610.94;5131738;27;20462;-68
2021/08/09 02:55:57;;;;;;;9.45;4.85;;;;;;;22.36;44.36;99615.47;5131643;27;20031;-68
2021/08/09 02:58:23;;;;;;;12.45;5.10;;;;;;;21.92;45.52;99622.50;5132252;27;20035;-70
2021/08/09 03:00:52;;;;;;;10.05;4.78;;;;;;;21.67;46.20;99629.06;5131795;27;20544;-67
2021/08/09 03:03:20;;;;;;;16.38;5.53;;;;;;;;;;5132166;27;20341;-67
2021/08/09 03:05:47;;;;;;;11.20;4.53;;;;;;;20.98;47.61;99641.13;5131036;27;20023;-69
2021/08/09 03:08:13;;;;;;;5.30;4.35;;;;;;;20.80;47.72;99643.91;5129171;27;20035;-67
2021/08/09 03:10:41;;;;;;;8.73;4.75;;;;;;;20.47;48.55;99642.94;5130041;27;20408;-69
2021/08/09 03:13:08;;;;;;;7.25;4.45;;;;;;;20.48;48.52;99642.56;5130111;27;20039;-69
2021/08/09 03:15:35;;;;;;;15.48;4.90;;;;;;;20.57;48.42;99653.56;5131557;27;20108;-69
2021/08/09 03:18:02;;;;;;;7.28;4.90;;;;;;;20.40;48.84;99651.47;5131137;27;20039;-67
2021/08/09 03:20:28;;;;;;;14.30;5.15;;;;;;;20.32;49.50;99642.88;5131303;27;20019;-69
2021/08/09 03:22:53;;;;;;;8.80;4.88;;;;;;;20.42;49.13;99654.72;5131688;27;20065;-68
2021/08/09 03:25:19;;;;;;;13.40;4.88;;;;;;;20.47;49.25;99655.16;5131273;27;20031;-68
2021/08/09 03:27:47;;;;;;;10.50;5.40;;;;;;;20.62;48.69;99655.19;5131595;27;20039;-70
2021/08/09 03:30:13;;;;;;;8.43;5.20;;;;;;;20.38;49.19;99657.53;5131427;27;20042;-67
2021/08/09 03:32:38;;;;;;;7.95;4.70;;;;;;;20.40;48.99;99668.50;5131071;27;20035;-69
2021/08/09 03:35:04;;;;;;;12.15;5.40;;;;;;;20.20;49.70;99677.31;5130756;27;20115;-67
2021/08/09 03:37:30;;;;;;;15.07;5.15;;;;;;;20.27;49.59;99676.53;5131023;27;20078;-69
2021/08/09 03:39:55;;;;;;;10.80;5.25;;;;;;;20.28;49.81;99650.59;5131288;27;20116;-69
2021/08/09 03:42:22;;;;;;;12.43;5.10;;;;;;;20.24;49.81;99672.44;5131220;27;20057;-68
2021/08/09 03:44:48;;;;;;;5.65;5.03;;;;;;;20.24;49.74;99674.50;5122448;27;20026;-68
2021/08/09 03:47:13;;;;;;;25.08;5.97;;;;;;;20.25;50.03;99679.75;5115667;27;20031;-68
2021/08/09 03:49:39;;;;;;;11.20;5.80;;;;;;;20.33;49.53;99677.78;5129232;27;20485;-68
2021/08/09 03:52:04;;;;;;;9.57;5.30;;;;;;;20.25;50.07;99685.44;5127658;27;20484;-67
2021/08/09 03:54:30;;;;;;;11.50;6.53;;;;;;;20.44;49.44;99681.47;5128098;27;20033;-68
2021/08/09 03:56:55;;;;;;;15.95;7.35;;;;;;;20.35;49.85;99689.56;5129894;27;20096;-67
2021/08/09 03:59:20;;;;;;;12.00;6.57;;;;;;;20.48;49.43;99681.50;5125931;27;20016;-73
2021/08/09 04:01:48;;;;;;;20.30;9.23;;;;;;;20.67;48.72;99690.94;5130345;27;20050;-71
2021/08/09 04:04:14;;;;;;;17.85;8.52;;;;;;;20.92;48.26;99682.53;5125439;27;20069;-72
2021/08/09 04:06:39;;;;;;;22.55;11.02;;;;;;;20.95;48.21;99690.28;5111114;27;20319;-69
2021/08/09 04:09:08;;;;;;;19.92;9.65;;;;;;;21.01;48.13;99682.97;5127365;27;20035;-69
2021/08/09 04:11:36;;;;;;;49.30;11.57;;;;;;;21.28;47.59;99684.66;5128567;27;20035;-71
2021/08/09 04:14:03;;;;;;;31.45;10.60;;;;;;;21.12;47.67;99680.19;5128740;27;20053;-71
2021/08/09 04:16:29;;;;;;;14.77;7.57;;;;;;;21.14;47.79;99688.28;5115725;27;20503;-71
2021/08/09 04:18:55;;;;;;;13.90;6.00;;;;;;;21.05;48.23;99691.53;5133579;27;20051;-71
2021/08/09 04:21:20;;;;;;;13.07;5.97;;;;;;;20.93;48.43;99678.47;5134832;27;20031;-71
2021/08/09 04:23:46;;;;;;;18.58;7.15;;;;;;;21.30;47.40;99673.69;5134887;27;20434;-71
2021/08/09 04:26:13;;;;;;;22.25;5.68;;;;;;;21.21;47.60;99668.41;5133583;27;20048;-71
2021/08/09 04:28:38;;;;;;;9.00;4.95;;;;;;;21.02;48.14;99666.75;5133669;27;20027;-70
2021/08/09 04:31:04;;;;;;;10.18;5.03;;;;;;;21.16;47.90;99663.94;5134665;27;20408;-71
2021/08/09 04:33:29;;;;;;;8.43;4.15;;;;;;;21.13;48.20;99669.59;5134588;27;20019;-71
2021/08/09 04:35:55;;;;;;;10.43;4.25;;;;;;;21.21;48.09;99671.25;5134805;27;20022;-71
2021/08/09 04:38:20;;;;;;;15.10;5.18;;;;;;;21.18;48.35;99678.56;5134491;27;20466;-71
2021/08/09 04:40:46;;;;;;;7.75;3.83;;;;;;;21.16;48.70;99681.00;5134408;27;20035;-71
2021/08/09 04:43:11;;;;;;;15.07;4.68;;;;;;;21.24;48.60;99678.97;5133279;27;20023;-71
2021/08/09 04:45:36;;;;;;;8.80;4.43;;;;;;;21.41;48.23;99683.06;5134275;27;20514;-71
2021/08/09 04:48:02;;;;;;;7.88;5.57;;;;;;;21.55;47.93;99681.44;5132902;27;20492;-71
2021/08/09 04:50:59;;;;;;;18.02;5.93;;;;;;;21.68;47.88;99681.91;5132925;27;20405;-72
2021/08/09 04:53:25;;;;;;;19.83;5.68;;;;;;;21.64;48.07;99687.56;5165253;27;20465;-72
2021/08/09 04:55:50;;;;;;;45.10;7.30;;;;;;;22.01;47.40;99686.34;5133099;27;20035;-68
2021/08/09 04:58:16;;;;;;;16.83;5.80;;;;;;;22.19;46.68;99688.34;5132877;27;20046;-68
2021/08/09 05:00:41;;;;;;;28.83;5.95;;;;;;;22.25;46.76;99680.19;5133851;27;20496;-69
2021/08/09 05:03:07;;;;;;;10.75;5.13;;;;;;;22.43;46.08;99677.31;5134071;27;20027;-69
2021/08/09 05:05:32;;;;;;;11.43;5.00;;;;;;;22.13;46.82;99690.81;5134024;27;20019;-71
2021/08/09 05:07:58;;;;;;;10.95;4.72;;;;;;;22.18;46.89;99695.28;5133770;27;20067;-70
2021/08/09 05:10:25;;;;;;;9.25;4.53;;;;;;;22.22;46.90;99684.69;5133907;27;20480;-71
2021/08/09 05:12:52;;;;;;;6.80;3.83;;;;;;;22.27;46.95;99684.28;5133926;27;20043;-71
2021/08/09 05:15:19;;;;;;;8.30;4.53;;;;;;;22.27;47.18;99683.47;5132405;27;20118;-70
2021/08/09 05:17:44;;;;;;;10.95;5.05;;;;;;;22.31;47.39;99684.28;5134037;27;20427;-70
2021/08/09 05:20:10;;;;;;;5.55;4.05;;;;;;;22.48;47.06;99676.94;5133676;27;20027;-70
2021/08/09 05:22:36;;;;;;;11.02;4.47;;;;;;;22.58;46.21;99687.47;5133867;27;20434;-70
2021/08/09 05:25:10;;;;;;;5.82;3.90;;;;;;;22.75;45.57;99687.03;5133216;27;20026;-71
2021/08/09 05:27:40;;;;;;;12.35;3.92;;;;;;;22.85;45.34;99694.69;5133792;27;20058;-72
2021/08/09 05:30:08;;;;;;;16.33;4.40;;;;;;;22.85;45.80;99689.00;5133265;27;20063;-72
2021/08/09 05:32:34;;;;;;;9.73;4.35;;;;;;;22.92;45.88;99688.13;5132175;27;20028;-72
2021/08/09 05:35:00;;;;;;;11.25;3.60;;;;;;;23.09;45.09;99698.66;5133317;27;20031;-72
2021/08/09 05:37:32;;;;;;;6.20;4.10;;;;;;;23.08;45.16;99697.03;5133221;27;20398;-72
2021/08/09 05:40:02;;;;;;;13.82;4.38;;;;;;;23.15;45.36;99704.75;5133426;27;20072;-73
2021/08/09 05:42:28;;;;;;;4.25;3.60;;;;;;;23.08;44.96;99694.19;5133401;27;20035;-71
2021/08/09 05:44:53;;;;;;;6.65;4.10;;;;;;;23.22;45.21;99698.19;5132083;27;20030;-71
2021/08/09 05:47:19;;;;;;;4.85;4.03;;;;;;;23.37;45.17;99699.75;5132982;27;20043;-70
2021/08/09 05:49:45;;;;;;;8.40;4.25;;;;;;;23.52;44.92;99696.78;5133243;27;20102;-70
2021/08/09 05:52:21;;;;;;;6.55;4.18;;;;;;;23.66;44.65;99702.41;5131555;27;20448;-73
2021/08/09 05:54:46;;;;;;;7.97;4.13;;;;;;;23.69;44.82;99693.00;5133043;27;20015;-73
2021/08/09 05:57:12;;;;;;;4.50;3.85;;;;;;;23.87;44.25;99699.78;5132907;27;20114;-72
2021/08/09 05:59:37;;;;;;;6.05;3.25;;;;;;;23.88;43.62;99702.22;5132830;27;20408;-71
2021/08/09 06:02:03;;;;;;;4.22;3.50;;;;;;;23.95;43.87;99698.47;5133000;27;20035;-72
2021/08/09 06:04:28;;;;;;;8.45;3.83;;;;;;;23.97;44.41;99708.25;5132521;27;20031;-71
2021/08/09 06:06:53;;;;;;;10.80;3.85;;;;;;;24.14;44.12;99702.84;5131867;27;20027;-72
2021/08/09 06:09:19;;;;;;;5.93;3.88;;;;;;;24.26;43.16;99707.22;5131403;27;20084;-71
2021/08/09 06:11:44;;;;;;;9.70;3.47;;;;;;;24.35;43.38;99706.69;5132559;27;20054;-73
2021/08/09 06:14:10;;;;;;;6.38;3.17;;;;;;;24.44;43.27;99695.59;5132793;27;20023;-71
2021/08/09 06:16:35;;;;;;;6.53;3.88;;;;;;;24.54;43.29;99688.94;5132501;27;20042;-71
2021/08/09 06:19:01;;;;;;;7.35;3.53;;;;;;;24.61;42.91;99696.63;5132641;27;20015;-70
2021/08/09 06:21:26;;;;;;;5.00;3.42;;;;;;;24.76;42.16;99694.41;5132312;27;20023;-73
2021/08/09 06:23:51;;;;;;;4.63;3.67;;;;;;;24.78;42.24;99703.41;5132498;27;20015;-71
2021/08/09 06:26:17;;;;;;;4.03;3.35;;;;;;;24.86;42.55;99691.84;5132244;27;20031;-73
2021/08/09 06:28:42;;;;;;;6.20;2.70;;;;;;;25.07;42.34;99693.63;5130895;27;20027;-71
2021/08/09 06:31:08;;;;;;;8.55;5.13;;;;;;;25.05;42.63;99685.47;5109326;27;20028;-73
2021/08/09 06:33:33;;;;;;;4.93;3.88;;;;;;;25.12;41.86;99684.56;5115589;27;20034;-72
2021/08/09 06:35:59;;;;;;;5.82;3.55;;;;;;;25.22;41.75;99683.59;5130774;27;20015;-72
2021/08/09 06:38:24;;;;;;;5.88;3.95;;;;;;;25.33;42.25;99688.34;5117683;27;20081;-73
2021/08/09 06:40:49;;;;;;;6.22;3.67;;;;;;;25.48;41.72;99672.56;5131600;27;20019;-71
2021/08/09 06:43:15;;;;;;;5.72;3.67;;;;;;;25.49;41.25;99673.44;5129559;27;20046;-71
2021/08/09 06:45:41;;;;;;;11.15;3.55;;;;;;;25.58;41.04;99678.59;5129839;27;20020;-71
2021/08/09 06:48:08;;;;;;;5.35;3.33;;;;;;;25.69;41.86;99673.50;5128402;27;20127;-75
2021/08/09 06:50:33;;;;;;;7.07;3.90;;;;;;;25.81;42.00;99677.00;5129484;27;20015;-74
2021/08/09 06:52:59;;;;;;;5.53;3.03;;;;;;;25.95;41.24;99679.63;5128408;27;20045;-73
2021/08/09 06:55:24;;;;;;;7.70;3.55;;;;;;;25.99;41.46;99683.22;5129738;27;20023;-73
2021/08/09 06:57:49;;;;;;;4.45;3.03;;;;;;;26.14;40.27;99680.91;5131765;27;20078;-73
2021/08/09 07:00:15;;;;;;;5.07;3.55;;;;;;;26.15;40.67;99685.38;5118616;27;20099;-73
2021/08/09 07:02:40;;;;;;;5.60;3.10;;;;;;;26.28;39.92;99684.78;5130723;27;20088;-73
2021/08/09 07:05:07;;;;;;;15.80;3.03;;;;;;;26.25;40.63;99677.06;5130917;27;20023;-73
2021/08/09 07:07:32;;;;;;;5.30;2.78;;;;;;;26.27;40.97;99672.53;5131372;27;20031;-73
2021/08/09 07:09:59;;;;;;;4.78;3.30;;;;;;;26.38;40.79;99674.38;5130261;27;20203;-70
2021/08/09 07:12:24;;;;;;;7.60;3.38;;;;;;;26.51;40.73;99681.06;5131624;27;20038;-73
2021/08/09 07:14:50;;;;;;;11.65;3.05;;;;;;;26.57;41.05;99673.56;5131286;27;20023;-75
2021/08/09 07:17:15;;;;;;;5.32;2.67;;;;;;;26.64;40.81;99675.47;5130093;27;20027;-73
2021/08/09 07:19:40;;;;;;;4.72;3.22;;;;;;;26.78;39.46;99671.50;5129595;27;20031;-71
2021/08/09 07:22:06;;;;;;;4.07;2.67;;;;;;;26.90;40.15;99667.16;5131420;27;20015;-70
2021/08/09 07:24:31;;;;;;;7.93;3.25;;;;;;;26.98;40.23;99665.75;5131146;27;20035;-71
2021/08/09 07:26:57;;;;;;;7.05;3.05;;;;;;;27.04;40.20;99669.75;5131517;27;20084;-72
2021/08/09 07:29:22;;;;;;;10.70;4.45;;;;;;;27.19;39.60;99672.28;5131373;27;20454;-72
2021/08/09 07:31:48;;;;;;;9.77;3.35;;;;;;;27.30;40.42;99664.22;5131265;27;20027;-71
2021/08/09 07:34:14;;;;;;;7.85;2.70;;;;;;;27.40;40.13;99661.56;5131466;27;20031;-71
2021/08/09 07:36:40;;;;;;;5.78;3.42;;;;;;;27.58;39.63;99656.19;5130892;27;20487;-71
2021/08/09 07:39:06;;;;;;;4.53;3.40;;;;;;;27.68;39.14;99659.25;5131267;27;20043;-71
2021/08/09 07:41:32;;;;;;;5.95;2.97;;;;;;;27.75;38.21;99656.19;5129949;28;20031;-71
2021/08/09 07:43:57;;;;;;;7.95;3.30;;;;;;;27.79;38.53;99661.84;5130087;28;20118;-72
2021/08/09 07:46:24;;;;;;;5.38;3.17;;;;;;;27.82;39.39;99652.34;5131361;27;20038;-73
2021/08/09 07:48:50;;;;;;;9.82;3.25;;;;;;;27.83;39.07;99666.25;5130926;27;20035;-74
2021/08/09 07:51:16;;;;;;;9.43;3.30;;;;;;;27.93;39.76;99655.72;5130008;28;20412;-73
2021/08/09 07:53:41;;;;;;;14.45;3.58;;;;;;;28.05;39.47;99665.69;5131311;27;20035;-70
2021/08/09 07:56:07;;;;;;;7.05;3.20;;;;;;;28.13;37.79;99658.50;5130934;27;20031;-73
2021/08/09 07:58:32;;;;;;;7.30;3.47;;;;;;;28.21;37.67;99666.94;5131499;27;20031;-67
2021/08/09 08:00:58;;;;;;;15.25;3.75;;;;;;;28.39;38.59;99663.56;5131029;27;20023;-71
2021/08/09 08:03:24;;;;;;;4.45;2.92;;;;;;;28.44;37.33;99652.31;5131433;27;20080;-71
2021/08/09 08:05:49;;;;;;;37.20;5.43;;;;;;;28.47;37.08;99644.03;5129478;28;20031;-72
2021/08/09 08:08:15;;;;;;;11.20;3.20;;;;;;;28.59;37.51;99646.97;5129815;28;20582;-69
2021/08/09 08:10:41;;;;;;;3.83;2.70;;;;;;;28.64;37.31;99654.22;5129726;28;20122;-71
2021/08/09 08:13:07;;;;;;;3.25;3.00;;;;;;;28.72;36.30;99635.50;5131318;27;20034;-73
2021/08/09 08:15:32;;;;;;;7.10;3.08;;;;;;;28.85;35.37;99641.28;5129619;28;20027;-73
2021/08/09 08:17:57;;;;;;;3.33;2.80;;;;;;;28.89;34.48;99635.44;5130634;27;20026;-71
2021/08/09 08:20:23;;;;;;;5.03;2.55;;;;;;;28.96;34.60;99635.22;5130894;27;20425;-72
2021/08/09 08:22:49;;;;;;;5.20;2.72;;;;;;;28.91;35.23;99630.00;5131052;27;20038;-72
2021/08/09 08:25:14;;;;;;;7.63;2.88;;;;;;;29.05;35.23;99622.19;5129649;28;20034;-72
2021/08/09 08:27:39;;;;;;;3.88;2.95;;;;;;;29.10;34.81;99622.44;5130366;27;20028;-70
2021/08/09 08:30:06;;;;;;;7.68;4.18;;;;;;;29.13;34.54;99624.38;5130822;27;20035;-70
2021/08/09 08:32:32;;;;;;;9.38;4.15;;;;;;;29.23;34.62;99625.31;5134844;27;20030;-73
2021/08/09 08:34:59;;;;;;;12.30;2.95;;;;;;;29.29;33.48;99623.47;5134459;27;20034;-73
2021/08/09 08:37:24;;;;;;;8.77;3.78;;;;;;;29.38;33.91;99625.66;5132972;27;20070;-73
2021/08/09 08:39:50;;;;;;;6.85;3.92;;;;;;;29.52;33.76;99624.41;5134428;27;20538;-73
2021/08/09 08:42:18;;;;;;;14.52;4.57;;;;;;;29.64;32.97;99625.66;5133141;27;20015;-73
2021/08/09 08:44:44;;;;;;;7.80;5.07;;;;;;;29.75;32.95;99618.72;5134515;27;20039;-72
2021/08/09 08:47:14;;;;;;;12.77;5.95;;;;;;;29.88;32.19;99612.91;5132768;27;20023;-72
2021/08/09 08:49:40;;;;;;;5.95;3.97;;;;;;;29.97;32.88;99624.53;5134526;27;20031;-72
2021/08/09 08:52:06;;;;;;;10.18;6.25;;;;;;;30.10;32.74;99615.84;5134288;27;20472;-71
2021/08/09 08:54:32;;;;;;;5.60;3.40;;;;;;;30.05;32.33;99611.50;5132954;27;20073;-72
2021/08/09 08:56:58;;;;;;;5.43;3.58;;;;;;;30.01;32.25;99607.91;5133873;27;20027;-71
2021/08/09 08:59:23;;;;;;;30.38;3.95;;;;;;;30.09;33.18;99605.59;5133926;27;20046;-71
2021/08/09 09:01:50;;;;;;;14.25;4.07;;;;;;;30.19;32.91;99604.41;5134080;27;20482;-74
2021/08/09 09:04:25;;;;;;;7.85;3.30;;;;;;;30.31;32.29;99602.75;5133900;27;20027;-74
2021/08/09 09:07:00;;;;;;;12.07;3.25;;;;;;;30.33;32.64;99605.97;5132430;27;20027;-73
2021/08/09 09:09:26;;;;;;;5.35;3.15;;;;;;;30.48;32.99;99600.47;5133598;27;20058;-74
2021/08/09 09:11:52;;;;;;;6.35;3.45;;;;;;;30.68;32.27;99600.13;5133537;27;20027;-74
2021/08/09 09:14:27;;;;;;;7.97;2.78;;;;;;;30.73;31.82;99604.50;5120124;27;20088;-72
2021/08/09 09:16:53;;;;;;;11.23;3.05;;;;;;;30.78;31.46;99597.31;5114621;27;20024;-71
2021/08/09 09:19:34;;;;;;;10.65;3.33;;;;;;;30.82;31.32;99584.31;5115394;27;20047;-71
2021/08/09 09:22:01;;;;;;;36.17;5.22;;;;;;;31.09;30.18;99585.75;5124124;27;20031;-71
2021/08/09 09:24:27;;;;;;;15.60;4.72;;;;;;;31.12;30.37;99574.50;5117902;27;20063;-76
2021/08/09 09:26:52;;;;;;;3.53;3.03;;;;;;;31.35;29.37;99578.94;5126804;27;20515;-68
2021/08/09 09:29:19;;;;;;;7.65;3.72;;;;;;;31.35;29.39;99584.72;5122156;27;20106;-71
2021/08/09 09:31:46;;;;;;;6.57;3.08;;;;;;;31.47;28.33;99580.88;5112064;27;20031;-70
2021/08/09 09:34:18;;;;;;;9.25;3.50;;;;;;;31.63;29.03;99576.91;5124212;27;20413;-72
2021/08/09 09:36:56;;;;;;;10.32;3.40;;;;;;;31.75;28.30;99583.03;5124227;27;20509;-74
2021/08/09 09:39:28;;;;;;;6.03;3.88;;;;;;;31.93;26.74;99576.50;5132836;27;20024;-71
2021/08/09 09:41:55;;;;;;;4.40;3.25;;;;;;;32.02;27.92;99573.59;5132579;27;20385;-73
2021/08/09 09:44:25;;;;;;;8.05;4.13;;;;;;;32.22;27.19;99566.53;5130957;27;20037;-72
2021/08/09 09:46:52;;;;;;;5.30;3.50;;;;;;;32.25;27.48;99568.44;5120948;27;20254;-71
2021/08/09 09:49:35;;;;;;;8.68;3.38;;;;;;;32.30;27.89;99564.91;5133231;27;20039;-72
2021/08/09 09:52:01;;;;;;;3.30;3.00;;;;;;;32.37;27.23;99558.00;5133099;27;20219;-72
2021/08/09 09:54:27;;;;;;;3.95;3.55;;;;;;;32.43;27.68;99558.97;5132748;27;20027;-71
2021/08/09 09:56:56;;;;;;;7.10;3.42;;;;;;;32.47;27.56;99555.91;5132602;27;20027;-72
2021/08/09 09:59:26;;;;;;;40.75;6.93;;;;;;;32.63;26.84;99557.63;5131380;27;20122;-74
2021/08/09 10:01:52;;;;;;;6.70;3.80;;;;;;;32.68;26.83;99553.25;5129679;27;20047;-75
2021/08/09 10:04:18;;;;;;;7.75;4.13;;;;;;;32.77;26.43;99559.84;5128723;27;20424;-71
2021/08/09 10:06:44;;;;;;;4.78;3.85;;;;;;;32.85;26.37;99550.78;5132676;27;20022;-72
2021/08/09 10:09:12;;;;;;;7.70;3.80;;;;;;;32.84;26.08;99541.31;5117575;27;20039;-70
2021/08/09 10:11:42;;;;;;;16.17;4.53;;;;;;;32.80;26.59;99551.47;5132443;27;20042;-71
2021/08/09 10:14:10;;;;;;;70.63;9.82;;;;;;;32.85;27.21;99542.91;5132522;27;20031;-70
2021/08/09 10:16:37;;;;;;;13.23;3.97;;;;;;;33.03;27.23;99539.16;5130653;27;20077;-72
2021/08/09 10:19:04;;;;;;;9.23;3.45;;;;;;;33.13;27.31;99531.22;5124887;27;20015;-73
2021/08/09 10:21:31;;;;;;;11.75;4.35;;;;;;;33.22;26.67;99538.28;5128377;27;20087;-74
2021/08/09 10:23:58;;;;;;;147.30;16.05;;;;;;;33.23;26.38;99534.06;5122144;27;20080;-70
2021/08/09 10:26:32;;;;;;;20.60;4.78;;;;;;;33.31;26.49;99546.91;5131758;27;20510;-71
2021/08/09 10:29:09;;;;;;;8.52;4.03;;;;;;;33.49;27.07;99537.31;5121024;27;20039;-70
2021/08/09 10:31:36;;;;;;;8.85;3.63;;;;;;;33.62;26.09;99542.84;5131359;27;20472;-72
2021/08/09 10:34:08;;;;;;;6.10;3.60;;;;;;;33.72;28.02;99538.59;5117076;27;20519;-70
2021/08/09 10:37:05;;;;;;;5.53;3.42;;;;;;;33.75;27.32;99533.91;5117767;27;20054;-70
2021/08/09 10:39:45;;;;;;;13.93;3.55;;;;;;;33.89;26.63;99535.22;5118363;27;20504;-70
2021/08/09 10:42:25;;;;;;;3.80;3.17;;;;;;;33.97;26.04;99529.84;5107176;27;20129;-70
2021/08/09 10:44:50;;;;;;;8.77;4.28;;;;;;;34.07;25.57;99534.28;5118868;27;20028;-70
2021/08/09 10:47:44;;;;;;;7.28;3.30;;;;;;;34.11;27.42;99525.41;5124315;27;20480;-72
2021/08/09 10:50:30;;;;;;;6.90;3.55;;;;;;;34.20;26.32;99521.59;5120335;27;20016;-73
2021/08/09 10:52:57;;;;;;;8.98;3.50;;;;;;;34.34;26.63;99525.81;5121014;27;20126;-70
2021/08/09 10:55:32;;;;;;;9.05;4.00;;;;;;;34.50;26.39;99525.31;5121469;27;20027;-70
2021/08/09 10:58:05;;;;;;;7.25;3.10;;;;;;;34.83;23.75;99520.63;5120795;27;20035;-70
2021/08/09 11:00:39;;;;;;;9.20;3.58;;;;;;;34.83;24.38;99518.50;5113389;27;20031;-70
2021/08/09 11:03:09;;;;;;;11.40;3.63;;;;;;;35.00;24.01;99512.94;5104244;27;20038;-70
2021/08/09 11:05:34;;;;;;;10.18;3.40;;;;;;;34.79;24.85;99509.19;5123231;27;20047;-71
2021/08/09 11:08:15;;;;;;;4.10;3.20;;;;;;;34.70;24.39;99498.50;5128073;27;20027;-70
2021/08/09 11:11:00;;;;;;;4.32;3.88;;;;;;;34.96;24.82;99494.13;5105054;27;21029;-70
2021/08/09 11:13:26;;;;;;;17.65;4.03;;;;;;;35.06;24.95;99492.72;5131918;27;20032;-70
2021/08/09 11:16:00;;;;;;;11.50;3.70;;;;;;;35.02;23.94;99486.31;5101560;28;20489;-70
2021/08/09 11:18:29;;;;;;;8.77;3.45;;;;;;;35.09;24.31;99480.09;5115952;27;20035;-70
2021/08/09 11:21:13;;;;;;;;;;;;;;;35.12;23.95;99470.38;5129349;27;20106;-71
2021/08/09 11:23:47;;;;;;;8.65;4.22;;;;;;;35.08;24.57;99471.91;5118486;27;19923;-71
2021/08/09 11:26:26;;;;;;;12.75;4.63;;;;;;;35.41;22.92;99459.09;5114252;27;20089;-71
2021/08/09 11:29:02;;;;;;;;;;;;;;;35.51;23.36;99457.63;5119418;27;20038;-70
2021/08/09 11:31:29;;;;;;;9.43;5.75;;;;;;;35.46;23.40;99461.28;5121189;27;19919;-71
2021/08/09 11:33:55;;;;;;;11.50;4.97;;;;;;;35.51;23.19;99457.63;5111058;28;20062;-71